createdAt,value
2023-04-27T00:00:11.391Z,-0.21
2023-04-27T00:02:40.039Z,-0.39
2023-04-27T00:05:11.714Z,-1.37
2023-04-27T00:07:40.344Z,-0.49
2023-04-27T00:10:10.388Z,-0.49
2023-04-27T00:12:38.861Z,-0.97
2023-04-27T00:15:09.030Z,-1.38
2023-04-27T00:17:37.631Z,-0.51
2023-04-27T00:20:08.881Z,-1.23
2023-04-27T00:22:38.889Z,-1.74
2023-04-27T00:25:08.206Z,-0.54
2023-04-27T00:27:36.618Z,-1.82
2023-04-27T00:30:09.681Z,-1.03
2023-04-27T00:32:38.158Z,-1.21
2023-04-27T00:35:07.642Z,-0.19
2023-04-27T00:37:36.154Z,-1.25
2023-04-27T00:40:09.043Z,-0.39
2023-04-27T00:42:37.635Z,-1.93
2023-04-27T00:45:07.672Z,-0.50
2023-04-27T00:47:36.698Z,-0.53
2023-04-27T00:50:08.617Z,-1.28
2023-04-27T00:52:38.222Z,-0.94
2023-04-27T00:55:09.900Z,-0.03
2023-04-27T00:57:39.099Z,-1.55
2023-04-27T01:00:10.929Z,-0.16
2023-04-27T01:02:40.232Z,-0.54
2023-04-27T01:05:10.065Z,-1.62
2023-04-27T01:07:40.108Z,-0.50
2023-04-27T01:10:11.182Z,-0.58
2023-04-27T01:12:39.617Z,-0.61
2023-04-27T01:15:10.245Z,-1.14
2023-04-27T01:17:41.863Z,-1.10
2023-04-27T01:20:11.542Z,-0.79
2023-04-27T01:22:40.348Z,-0.93
2023-04-27T01:25:10.986Z,-0.24
2023-04-27T01:27:39.398Z,-0.87
2023-04-27T01:30:09.509Z,-0.64
2023-04-27T01:32:39.393Z,-0.47
2023-04-27T01:35:08.862Z,-1.61
2023-04-27T01:37:37.580Z,-0.57
2023-04-27T01:40:07.684Z,-2.11
2023-04-27T01:42:38.332Z,-1.47
2023-04-27T01:45:12.642Z,-0.63
2023-04-27T01:47:41.283Z,-1.01
2023-04-27T01:50:10.777Z,-1.35
2023-04-27T01:52:41.129Z,-2.32
2023-04-27T01:55:10.269Z,-1.28
2023-04-27T01:57:40.641Z,-1.87
2023-04-27T02:00:10.943Z,-1.28
2023-04-27T02:02:57.361Z,-1.40
2023-04-27T02:05:25.961Z,-1.96
2023-04-27T02:07:55.105Z,-0.73
2023-04-27T02:10:24.601Z,-0.97
2023-04-27T02:12:58.453Z,-1.31
2023-04-27T02:15:28.484Z,-0.88
2023-04-27T02:17:57.399Z,-1.87
2023-04-27T02:20:26.105Z,-1.18
2023-04-27T02:22:55.489Z,-0.83
2023-04-27T02:25:27.696Z,-1.31
2023-04-27T02:27:58.154Z,-1.26
2023-04-27T02:30:27.246Z,-1.43
2023-04-27T02:33:00.928Z,-1.89
2023-04-27T02:35:29.526Z,-0.94
2023-04-27T02:38:01.278Z,-1.38
2023-04-27T02:40:29.718Z,-1.17
2023-04-27T02:43:00.735Z,-2.08
2023-04-27T02:45:29.764Z,-1.24
2023-04-27T02:47:59.886Z,-1.23
2023-04-27T02:50:28.625Z,-0.91
2023-04-27T02:52:57.650Z,-0.88
2023-04-27T02:55:26.029Z,-2.05
2023-04-27T02:57:54.390Z,-1.61
2023-04-27T03:00:24.384Z,-1.29
2023-04-27T03:02:52.881Z,-0.94
2023-04-27T03:05:21.766Z,-0.95
2023-04-27T03:07:50.135Z,-1.60
2023-04-27T03:10:18.717Z,-1.04
2023-04-27T03:12:47.088Z,-2.76
2023-04-27T03:15:15.488Z,-1.50
2023-04-27T03:17:46.094Z,-1.59
2023-04-27T03:20:15.246Z,-2.65
2023-04-27T03:22:45.775Z,-1.38
2023-04-27T03:25:14.590Z,-2.59
2023-04-27T03:27:43.595Z,-1.27
2023-04-27T03:30:14.671Z,-2.55
2023-04-27T03:32:46.347Z,-1.14
2023-04-27T03:35:16.218Z,-1.16
2023-04-27T03:37:47.123Z,-1.16
2023-04-27T03:40:16.111Z,-1.93
2023-04-27T03:42:44.416Z,-1.63
2023-04-27T03:45:13.200Z,-2.81
2023-04-27T03:47:41.908Z,-1.59
2023-04-27T03:50:12.258Z,-1.26
2023-04-27T03:52:40.861Z,-2.77
2023-04-27T03:55:10.143Z,-1.29
2023-04-27T03:57:41.629Z,-1.28
2023-04-27T04:00:12.940Z,-1.30
2023-04-27T04:02:41.451Z,-1.30
2023-04-27T04:05:14.886Z,-1.91
2023-04-27T04:07:43.731Z,-2.28
2023-04-27T04:10:13.691Z,-2.64
2023-04-27T04:12:42.877Z,-1.49
2023-04-27T04:15:12.020Z,-3.00
2023-04-27T04:17:40.385Z,-2.58
2023-04-27T04:20:15.429Z,-2.79
2023-04-27T04:22:44.387Z,-1.33
2023-04-27T04:25:13.989Z,-1.57
2023-04-27T04:27:43.556Z,-1.20
2023-04-27T04:30:13.554Z,-1.17
2023-04-27T04:32:42.693Z,-1.30
2023-04-27T04:35:13.087Z,-2.39
2023-04-27T04:37:41.640Z,-1.63
2023-04-27T04:40:11.766Z,-1.13
2023-04-27T04:42:42.302Z,-1.25
2023-04-27T04:45:11.701Z,-1.35
2023-04-27T04:47:40.742Z,-1.26
2023-04-27T04:50:10.695Z,-1.70
2023-04-27T04:52:40.634Z,-1.31
2023-04-27T04:55:10.535Z,-2.36
2023-04-27T04:57:38.933Z,-0.87
2023-04-27T05:00:12.007Z,-2.00
2023-04-27T05:02:41.140Z,-0.90
2023-04-27T05:05:12.757Z,-0.62
2023-04-27T05:07:42.366Z,-0.78
2023-04-27T05:10:10.998Z,-0.48
2023-04-27T05:12:39.464Z,-1.11
2023-04-27T05:15:09.112Z,-0.30
2023-04-27T05:17:37.350Z,-0.24
2023-04-27T05:20:07.917Z,-1.81
2023-04-27T05:22:36.762Z,-1.48
2023-04-27T05:25:07.829Z,-1.02
2023-04-27T05:27:36.319Z,-1.74
2023-04-27T05:30:05.142Z,-0.62
2023-04-27T05:32:37.376Z,-0.00
2023-04-27T05:35:06.582Z,-0.86
2023-04-27T05:37:34.970Z,-1.04
2023-04-27T05:40:05.725Z,0.18
2023-04-27T05:42:34.427Z,0.26
2023-04-27T05:45:03.684Z,0.50
2023-04-27T05:47:32.331Z,0.78
2023-04-27T05:50:00.791Z,1.10
2023-04-27T05:52:31.074Z,0.84
2023-04-27T05:55:01.630Z,1.21
2023-04-27T05:57:31.788Z,1.60
2023-04-27T06:00:00.405Z,0.50
2023-04-27T06:02:32.678Z,1.12
2023-04-27T06:05:01.114Z,1.23
2023-04-27T06:07:29.689Z,0.67
2023-04-27T06:09:58.240Z,0.25
2023-04-27T06:12:26.576Z,0.16
2023-04-27T06:14:56.495Z,0.47
2023-04-27T06:17:25.068Z,1.99
2023-04-27T06:19:53.559Z,0.90
2023-04-27T06:22:21.961Z,1.32
2023-04-27T06:24:50.350Z,1.35
2023-04-27T06:27:20.726Z,2.86
2023-04-27T06:29:49.229Z,3.35
2023-04-27T06:32:24.934Z,3.50
2023-04-27T06:34:53.575Z,4.03
2023-04-27T06:37:23.114Z,3.02
2023-04-27T06:39:51.868Z,3.67
2023-04-27T06:42:20.225Z,4.01
2023-04-27T06:44:58.455Z,4.20
2023-04-27T06:47:28.539Z,3.65
2023-04-27T06:49:56.847Z,3.77
2023-04-27T06:52:25.140Z,4.31
2023-04-27T06:54:53.466Z,3.37
2023-04-27T06:57:22.412Z,3.90
2023-04-27T06:59:50.807Z,3.28
2023-04-27T07:02:24.331Z,4.09
2023-04-27T07:04:57.369Z,4.47
2023-04-27T07:07:25.914Z,4.18
2023-04-27T07:09:54.381Z,4.39
2023-04-27T07:12:22.775Z,4.61
2023-04-27T07:14:51.715Z,4.58
2023-04-27T07:17:20.248Z,5.02
2023-04-27T07:19:49.017Z,5.38
2023-04-27T07:22:20.032Z,5.47
2023-04-27T07:24:48.553Z,5.39
2023-04-27T07:27:19.492Z,5.95
2023-04-27T07:29:50.333Z,5.66
2023-04-27T07:32:18.938Z,5.88
2023-04-27T07:34:53.301Z,4.77
2023-04-27T07:37:24.284Z,6.06
2023-04-27T07:39:53.196Z,4.89
2023-04-27T07:42:23.664Z,5.54
2023-04-27T07:44:52.433Z,5.55
2023-04-27T07:47:21.942Z,5.66
2023-04-27T07:49:50.497Z,6.79
2023-04-27T07:52:18.918Z,6.65
2023-04-27T07:54:48.894Z,7.30
2023-04-27T07:57:17.240Z,7.91
2023-04-27T07:59:45.890Z,7.45
2023-04-27T08:02:20.453Z,8.59
2023-04-27T08:04:49.804Z,8.67
2023-04-27T08:07:19.739Z,9.59
2023-04-27T08:09:53.424Z,9.41
2023-04-27T08:12:21.819Z,10.60
2023-04-27T08:14:50.701Z,11.30
2023-04-27T08:17:19.490Z,11.60
2023-04-27T08:19:48.025Z,11.31
2023-04-27T08:22:16.605Z,11.49
2023-04-27T08:24:45.166Z,11.58
2023-04-27T08:27:15.693Z,11.63
2023-04-27T08:29:48.285Z,12.63
2023-04-27T08:32:17.563Z,11.48
2023-04-27T08:34:46.552Z,12.61
2023-04-27T08:37:14.954Z,12.72
2023-04-27T08:39:43.526Z,12.70
2023-04-27T08:42:14.374Z,13.27
2023-04-27T08:44:45.338Z,12.70
2023-04-27T08:47:16.812Z,12.31
2023-04-27T08:49:45.436Z,13.62
2023-04-27T08:52:16.400Z,12.88
2023-04-27T08:54:45.314Z,13.62
2023-04-27T08:57:16.408Z,13.34
2023-04-27T08:59:45.452Z,13.40
2023-04-27T09:02:21.222Z,12.38
2023-04-27T09:04:51.072Z,13.20
2023-04-27T09:07:20.717Z,13.22
2023-04-27T09:09:49.718Z,13.38
2023-04-27T09:12:22.015Z,12.79
2023-04-27T09:15:00.424Z,12.97
2023-04-27T09:17:30.451Z,13.34
2023-04-27T09:20:09.120Z,12.61
2023-04-27T09:22:49.662Z,12.65
2023-04-27T09:25:26.426Z,12.78
2023-04-27T09:27:58.272Z,13.56
2023-04-27T09:30:27.802Z,13.67
2023-04-27T09:32:57.952Z,13.65
2023-04-27T09:35:29.319Z,13.89
2023-04-27T09:37:58.312Z,14.44
2023-04-27T09:40:31.914Z,14.07
2023-04-27T09:43:02.584Z,14.25
2023-04-27T09:45:34.716Z,14.24
2023-04-27T09:48:03.656Z,14.76
2023-04-27T09:50:37.905Z,14.35
2023-04-27T09:53:10.712Z,14.69
2023-04-27T09:55:43.336Z,13.79
2023-04-27T09:58:51.452Z,14.57
2023-04-27T10:01:28.297Z,14.44
2023-04-27T10:04:14.617Z,13.96
2023-04-27T10:07:02.113Z,14.73
2023-04-27T10:09:43.903Z,14.68
2023-04-27T10:12:18.599Z,14.64
2023-04-27T10:14:53.687Z,14.52
2023-04-27T10:17:27.877Z,13.99
2023-04-27T10:20:02.252Z,14.61
2023-04-27T10:22:41.430Z,14.48
2023-04-27T10:25:19.954Z,14.11
2023-04-27T10:27:53.498Z,14.30
2023-04-27T10:30:26.009Z,14.49
2023-04-27T10:32:56.750Z,14.43
2023-04-27T10:35:35.230Z,14.34
2023-04-27T10:38:12.473Z,13.85
2023-04-27T10:40:40.956Z,14.64
2023-04-27T10:43:14.305Z,13.86
2023-04-27T10:45:46.015Z,14.30
2023-04-27T10:48:18.072Z,13.92
2023-04-27T10:50:47.058Z,14.61
2023-04-27T10:53:16.583Z,15.05
2023-04-27T10:55:45.065Z,14.19
2023-04-27T10:58:13.617Z,14.37
2023-04-27T11:00:45.003Z,15.42
2023-04-27T11:03:18.210Z,14.86
2023-04-27T11:05:49.265Z,14.58
2023-04-27T11:08:21.002Z,14.85
2023-04-27T11:10:51.434Z,15.06
2023-04-27T11:13:22.254Z,14.72
2023-04-27T11:15:54.795Z,14.51
2023-04-27T11:18:26.075Z,15.14
2023-04-27T11:21:06.752Z,14.78
2023-04-27T11:23:38.003Z,15.31
2023-04-27T11:26:12.076Z,15.70
2023-04-27T11:28:40.583Z,14.87
2023-04-27T11:31:11.661Z,15.35
2023-04-27T11:33:41.058Z,15.69
2023-04-27T11:36:18.520Z,15.05
2023-04-27T11:38:50.438Z,15.46
2023-04-27T11:41:19.549Z,15.73
2023-04-27T11:43:49.595Z,15.68
2023-04-27T11:46:23.267Z,15.76
2023-04-27T11:48:51.929Z,15.48
2023-04-27T11:51:20.513Z,15.47
2023-04-27T11:53:51.296Z,16.21
2023-04-27T11:56:19.697Z,16.44
2023-04-27T11:58:48.437Z,15.50
2023-04-27T12:01:24.801Z,15.56
2023-04-27T12:04:05.445Z,16.17
2023-04-27T12:06:34.392Z,15.36
2023-04-27T12:09:07.287Z,15.91
2023-04-27T12:11:35.839Z,16.43
2023-04-27T12:14:04.997Z,16.25
2023-04-27T12:16:37.629Z,16.21
2023-04-27T12:19:08.202Z,15.79
2023-04-27T12:21:36.545Z,15.48
2023-04-27T12:24:05.770Z,16.59
2023-04-27T12:26:34.005Z,16.84
2023-04-27T12:29:04.372Z,16.82
2023-04-27T12:31:32.919Z,16.85
2023-04-27T12:34:01.493Z,17.38
2023-04-27T12:36:31.932Z,16.63
2023-04-27T12:39:13.801Z,16.79
2023-04-27T12:41:42.376Z,16.74
2023-04-27T12:44:11.226Z,17.24
2023-04-27T12:46:39.787Z,16.43
2023-04-27T12:49:08.754Z,17.05
2023-04-27T12:51:38.727Z,16.43
2023-04-27T12:54:10.970Z,17.14
2023-04-27T12:56:39.578Z,16.51
2023-04-27T12:59:07.961Z,16.39
2023-04-27T13:01:39.364Z,17.51
2023-04-27T13:04:09.275Z,17.76
2023-04-27T13:06:39.338Z,16.89
2023-04-27T13:09:07.856Z,16.96
2023-04-27T13:11:36.276Z,17.04
2023-04-27T13:14:07.432Z,17.68
2023-04-27T13:16:37.075Z,17.74
2023-04-27T13:19:05.658Z,17.49
2023-04-27T13:21:34.334Z,17.77
2023-04-27T13:24:08.538Z,17.97
2023-04-27T13:26:36.881Z,17.72
2023-04-27T13:29:05.473Z,17.49
2023-04-27T13:31:34.263Z,17.49
2023-04-27T13:34:07.074Z,16.79
2023-04-27T13:36:38.212Z,16.87
2023-04-27T13:39:08.973Z,17.63
2023-04-27T13:41:37.436Z,17.70
2023-04-27T13:44:05.854Z,16.63
2023-04-27T13:46:35.301Z,17.08
2023-04-27T13:49:03.770Z,17.54
2023-04-27T13:51:40.414Z,17.47
2023-04-27T13:54:10.331Z,17.38
2023-04-27T13:56:38.812Z,17.57
2023-04-27T13:59:09.430Z,17.26
2023-04-27T14:01:40.250Z,16.85
2023-04-27T14:04:11.009Z,17.13
2023-04-27T14:06:39.553Z,17.62
2023-04-27T14:09:09.779Z,17.46
2023-04-27T14:11:52.336Z,17.00
2023-04-27T14:14:24.633Z,17.13
2023-04-27T14:16:53.918Z,18.00
2023-04-27T14:19:22.307Z,17.71
2023-04-27T14:21:51.313Z,17.41
2023-04-27T14:24:21.161Z,17.84
2023-04-27T14:26:51.222Z,16.85
2023-04-27T14:29:19.843Z,17.79
2023-04-27T14:31:48.618Z,17.67
2023-04-27T14:34:18.442Z,17.20
2023-04-27T14:36:48.026Z,17.43
2023-04-27T14:39:17.016Z,18.08
2023-04-27T14:41:46.781Z,18.12
2023-04-27T14:44:18.234Z,17.80
2023-04-27T14:46:46.752Z,18.17
2023-04-27T14:49:15.397Z,17.80
2023-04-27T14:51:47.019Z,16.88
2023-04-27T14:54:17.882Z,17.22
2023-04-27T14:56:47.648Z,16.49
2023-04-27T14:59:22.238Z,16.29
2023-04-27T15:01:50.833Z,16.72
2023-04-27T15:04:19.285Z,15.91
2023-04-27T15:06:51.060Z,17.01
2023-04-27T15:09:19.569Z,15.70
2023-04-27T15:11:52.596Z,16.84
2023-04-27T15:14:21.241Z,16.48
2023-04-27T15:16:50.655Z,15.96
2023-04-27T15:19:19.211Z,16.06
2023-04-27T15:21:48.618Z,16.51
2023-04-27T15:24:19.686Z,16.12
2023-04-27T15:26:49.459Z,15.31
2023-04-27T15:29:20.257Z,16.00
2023-04-27T15:31:49.013Z,16.49
2023-04-27T15:34:17.311Z,16.48
2023-04-27T15:36:45.696Z,15.55
2023-04-27T15:39:14.293Z,16.12
2023-04-27T15:41:45.765Z,15.56
2023-04-27T15:44:15.503Z,15.77
2023-04-27T15:46:47.063Z,15.85
2023-04-27T15:49:17.815Z,15.35
2023-04-27T15:51:49.205Z,15.91
2023-04-27T15:54:19.277Z,15.10
2023-04-27T15:56:50.113Z,14.58
2023-04-27T15:59:21.963Z,15.53
2023-04-27T16:01:52.941Z,14.45
2023-04-27T16:04:24.283Z,15.47
2023-04-27T16:06:55.267Z,15.68
2023-04-27T16:09:26.575Z,14.68
2023-04-27T16:11:57.330Z,15.62
2023-04-27T16:14:26.999Z,14.63
2023-04-27T16:17:00.560Z,15.70
2023-04-27T16:19:29.221Z,14.76
2023-04-27T16:21:57.737Z,14.17
2023-04-27T16:24:29.391Z,14.58
2023-04-27T16:26:57.912Z,14.23
2023-04-27T16:29:27.455Z,13.70
2023-04-27T16:31:55.868Z,13.28
2023-04-27T16:34:26.525Z,14.27
2023-04-27T16:36:56.850Z,13.52
2023-04-27T16:39:27.645Z,13.89
2023-04-27T16:41:55.938Z,13.61
2023-04-27T16:44:24.547Z,13.80
2023-04-27T16:48:00.998Z,13.83
2023-04-27T16:49:47.669Z,13.14
2023-04-27T16:52:17.170Z,12.61
2023-04-27T16:54:48.684Z,12.27
2023-04-27T16:57:17.466Z,12.27
2023-04-27T16:59:45.891Z,13.14
2023-04-27T17:02:25.202Z,12.95
2023-04-27T17:04:55.980Z,12.14
2023-04-27T17:07:28.742Z,12.11
2023-04-27T17:09:57.249Z,12.01
2023-04-27T17:12:28.603Z,12.44
2023-04-27T17:15:00.908Z,12.38
2023-04-27T17:17:35.127Z,11.89
2023-04-27T17:20:10.351Z,10.97
2023-04-27T17:22:40.200Z,11.65
2023-04-27T17:25:09.770Z,10.80
2023-04-27T17:27:38.660Z,11.57
2023-04-27T17:30:09.615Z,10.92
2023-04-27T17:32:48.804Z,11.46
2023-04-27T17:35:20.572Z,11.19
2023-04-27T17:38:01.261Z,10.39
2023-04-27T17:40:34.985Z,10.28
2023-04-27T17:43:03.422Z,10.98
2023-04-27T17:45:32.148Z,10.96
2023-04-27T17:48:02.097Z,10.93
2023-04-27T17:50:34.631Z,10.70
2023-04-27T17:53:03.266Z,10.81
2023-04-27T17:55:31.708Z,10.52
2023-04-27T17:58:00.326Z,9.55
2023-04-27T18:00:28.678Z,10.62
2023-04-27T18:02:57.424Z,10.62
2023-04-27T18:05:27.971Z,10.14
2023-04-27T18:07:56.366Z,9.28
2023-04-27T18:10:24.939Z,9.24
2023-04-27T18:12:53.460Z,10.54
2023-04-27T18:15:21.931Z,10.32
2023-04-27T18:17:50.357Z,10.42
2023-04-27T18:20:19.212Z,10.37
2023-04-27T18:22:49.316Z,9.66
2023-04-27T18:25:17.836Z,9.84
2023-04-27T18:27:48.651Z,10.01
2023-04-27T18:30:20.217Z,10.05
2023-04-27T18:32:48.948Z,9.60
2023-04-27T18:35:17.576Z,9.35
2023-04-27T18:37:48.336Z,8.57
2023-04-27T18:40:21.440Z,8.23
2023-04-27T18:42:51.671Z,8.42
2023-04-27T18:45:20.345Z,8.86
2023-04-27T18:47:51.903Z,8.34
2023-04-27T18:50:21.005Z,9.03
2023-04-27T18:52:52.232Z,9.18
2023-04-27T18:55:22.760Z,9.60
2023-04-27T18:57:51.320Z,8.68
2023-04-27T19:00:20.233Z,8.79
2023-04-27T19:02:52.312Z,8.18
2023-04-27T19:05:21.245Z,8.65
2023-04-27T19:07:49.696Z,8.95
2023-04-27T19:10:18.173Z,8.13
2023-04-27T19:12:48.176Z,9.19
2023-04-27T19:15:16.889Z,8.62
2023-04-27T19:17:47.183Z,8.82
2023-04-27T19:20:17.503Z,9.00
2023-04-27T19:22:48.022Z,7.94
2023-04-27T19:25:16.816Z,7.52
2023-04-27T19:27:45.608Z,8.22
2023-04-27T19:30:16.403Z,7.90
2023-04-27T19:32:47.984Z,8.25
2023-04-27T19:35:16.707Z,8.67
2023-04-27T19:37:45.105Z,7.84
2023-04-27T19:40:16.517Z,8.51
2023-04-27T19:42:45.216Z,7.94
2023-04-27T19:45:18.624Z,8.33
2023-04-27T19:47:48.642Z,7.21
2023-04-27T19:50:18.687Z,7.19
2023-04-27T19:52:47.095Z,8.16
2023-04-27T19:55:15.638Z,7.75
2023-04-27T19:57:44.683Z,7.07
2023-04-27T20:00:21.192Z,7.39
2023-04-27T20:02:58.899Z,8.17
2023-04-27T20:05:29.158Z,8.02
2023-04-27T20:07:57.890Z,8.06
2023-04-27T20:10:26.224Z,7.30
2023-04-27T20:12:57.505Z,7.46
2023-04-27T20:15:29.430Z,6.84
2023-04-27T20:18:01.666Z,8.04
2023-04-27T20:20:30.109Z,7.79
2023-04-27T20:22:58.575Z,7.11
2023-04-27T20:25:27.239Z,6.43
2023-04-27T20:27:55.596Z,7.47
2023-04-27T20:30:24.088Z,7.28
2023-04-27T20:32:55.247Z,8.03
2023-04-27T20:35:24.291Z,7.49
2023-04-27T20:37:53.980Z,7.86
2023-04-27T20:40:22.376Z,6.73
2023-04-27T20:42:51.806Z,6.86
2023-04-27T20:45:23.121Z,7.52
2023-04-27T20:47:53.307Z,7.32
2023-04-27T20:50:23.138Z,7.33
2023-04-27T20:52:52.257Z,6.60
2023-04-27T20:55:20.677Z,7.06
2023-04-27T20:57:50.206Z,6.42
2023-04-27T21:00:24.276Z,6.94
2023-04-27T21:02:54.344Z,7.52
2023-04-27T21:05:23.650Z,6.91
2023-04-27T21:07:52.344Z,6.74
2023-04-27T21:10:20.595Z,7.15
2023-04-27T21:12:48.985Z,7.49
2023-04-27T21:15:17.469Z,6.47
2023-04-27T21:17:46.099Z,6.86
2023-04-27T21:20:17.708Z,7.51
2023-04-27T21:22:46.408Z,7.51
2023-04-27T21:25:14.792Z,6.61
2023-04-27T21:27:45.982Z,6.13
2023-04-27T21:30:18.242Z,7.20
2023-04-27T21:32:46.672Z,7.46
2023-04-27T21:35:16.625Z,7.52
2023-04-27T21:37:44.992Z,7.21
2023-04-27T21:40:14.301Z,7.44
2023-04-27T21:42:42.694Z,6.26
2023-04-27T21:45:14.491Z,5.96
2023-04-27T21:47:42.887Z,6.37
2023-04-27T21:50:17.343Z,7.39
2023-04-27T21:52:45.959Z,7.41
2023-04-27T21:55:14.538Z,6.51
2023-04-27T21:57:42.801Z,7.03
2023-04-27T22:00:14.662Z,7.35
2023-04-27T22:02:49.812Z,6.55
2023-04-27T22:05:21.100Z,7.24
2023-04-27T22:07:51.616Z,7.26
2023-04-27T22:10:20.115Z,5.94
2023-04-27T22:12:48.523Z,5.94
2023-04-27T22:15:16.933Z,7.06
2023-04-27T22:17:45.596Z,6.34
2023-04-27T22:20:14.609Z,5.82
2023-04-27T22:22:47.814Z,7.10
2023-04-27T22:25:16.181Z,6.83
2023-04-27T22:27:46.849Z,6.45
2023-04-27T22:30:18.298Z,7.03
2023-04-27T22:32:46.747Z,6.31
2023-04-27T22:35:26.473Z,6.38
2023-04-27T22:38:01.521Z,6.72
2023-04-27T22:40:30.034Z,5.88
2023-04-27T22:42:58.543Z,6.33
2023-04-27T22:45:26.906Z,6.75
2023-04-27T22:47:55.391Z,7.12
2023-04-27T22:50:25.572Z,7.12
2023-04-27T22:52:53.948Z,6.95
2023-04-27T22:55:26.121Z,6.08
2023-04-27T22:57:54.375Z,6.48
2023-04-27T23:00:22.946Z,6.06
2023-04-27T23:02:56.673Z,5.73
2023-04-27T23:05:25.450Z,6.20
2023-04-27T23:07:53.747Z,5.91
2023-04-27T23:10:23.715Z,6.84
2023-04-27T23:12:54.952Z,6.97
2023-04-27T23:15:24.224Z,6.51
2023-04-27T23:17:58.318Z,6.55
2023-04-27T23:20:28.726Z,6.66
2023-04-27T23:22:57.665Z,6.51
2023-04-27T23:25:28.933Z,5.39
2023-04-27T23:27:57.167Z,5.86
2023-04-27T23:30:26.098Z,6.83
2023-04-27T23:32:56.528Z,6.67
2023-04-27T23:35:25.021Z,5.76
2023-04-27T23:37:53.421Z,6.57
2023-04-27T23:40:21.814Z,6.84
2023-04-27T23:42:52.626Z,6.77
2023-04-27T23:45:21.279Z,6.76
2023-04-27T23:47:49.780Z,6.28
2023-04-27T23:50:18.444Z,5.28
2023-04-27T23:52:46.692Z,5.31
2023-04-27T23:55:15.093Z,5.38
2023-04-27T23:57:44.477Z,6.61
